createdAt,value
2022-12-25T00:07:04.287Z,15.20
2022-12-25T00:15:27.766Z,12.80
2022-12-25T00:23:58.465Z,14.40
2022-12-25T00:32:21.536Z,15.90
2022-12-25T00:40:44.632Z,13.00
2022-12-25T00:49:07.536Z,17.80
2022-12-25T00:57:30.863Z,20.90
2022-12-25T01:06:03.730Z,17.10
2022-12-25T01:14:26.627Z,22.60
2022-12-25T01:22:49.530Z,16.50
2022-12-25T01:31:15.437Z,16.20
2022-12-25T01:39:38.508Z,21.90
2022-12-25T01:48:06.193Z,19.40
2022-12-25T01:56:30.379Z,17.30
2022-12-25T02:05:08.502Z,17.20
2022-12-25T02:13:32.195Z,20.40
2022-12-25T02:22:26.440Z,25.30
2022-12-25T02:30:54.935Z,20.00
2022-12-25T02:39:58.089Z,21.00
2022-12-25T02:48:43.351Z,15.00
2022-12-25T02:57:29.795Z,16.20
2022-12-25T03:06:16.054Z,19.00
2022-12-25T03:14:58.217Z,17.70
2022-12-25T03:23:44.422Z,15.90
2022-12-25T03:32:10.321Z,20.00
2022-12-25T03:41:01.545Z,18.80
2022-12-25T03:49:50.325Z,17.00
2022-12-25T03:58:40.774Z,18.20
2022-12-25T04:07:33.019Z,15.10
2022-12-25T04:16:14.902Z,14.00
2022-12-25T04:24:56.697Z,13.80
2022-12-25T04:33:38.341Z,12.90
2022-12-25T04:42:01.419Z,15.70
2022-12-25T04:50:25.043Z,16.20
2022-12-25T04:58:48.514Z,15.60
2022-12-25T05:07:11.451Z,15.10
2022-12-25T05:15:34.452Z,15.20
2022-12-25T05:23:57.565Z,13.40
2022-12-25T05:32:20.463Z,15.30
2022-12-25T05:40:43.385Z,15.10
2022-12-25T05:49:06.478Z,15.90
2022-12-25T05:57:30.452Z,13.50
2022-12-25T06:05:53.790Z,16.50
2022-12-25T06:14:16.777Z,15.50
2022-12-25T06:22:40.615Z,17.20
2022-12-25T06:31:09.457Z,16.30
2022-12-25T06:39:32.899Z,17.50
2022-12-25T06:47:55.858Z,14.70
2022-12-25T06:56:22.877Z,24.50
2022-12-25T07:04:46.603Z,19.70
2022-12-25T07:13:09.688Z,15.40
2022-12-25T07:21:33.087Z,19.40
2022-12-25T07:29:55.866Z,23.10
2022-12-25T07:38:18.798Z,19.50
2022-12-25T07:46:41.763Z,16.40
2022-12-25T07:55:05.251Z,29.00
2022-12-25T08:03:28.315Z,28.30
2022-12-25T08:11:52.082Z,25.30
2022-12-25T08:20:15.061Z,27.10
2022-12-25T08:28:40.752Z,32.20
2022-12-25T08:37:06.524Z,26.00
2022-12-25T08:45:41.033Z,19.30
2022-12-25T08:54:18.039Z,20.30
2022-12-25T09:02:48.998Z,18.50
2022-12-25T09:11:14.547Z,19.00
2022-12-25T09:19:37.440Z,17.70
2022-12-25T09:28:00.485Z,16.80
2022-12-25T09:36:24.122Z,20.00
2022-12-25T09:44:55.354Z,18.10
2022-12-25T09:53:46.481Z,17.20
2022-12-25T10:02:39.747Z,17.40
2022-12-25T10:11:27.439Z,18.40
2022-12-25T10:19:59.829Z,16.60
2022-12-25T10:28:38.550Z,18.80
2022-12-25T10:37:19.654Z,17.50
2022-12-25T10:46:02.344Z,16.60
2022-12-25T10:54:57.854Z,17.50
2022-12-25T11:03:27.878Z,22.70
2022-12-25T11:20:17.426Z,18.00
2022-12-25T11:28:45.258Z,67.10
2022-12-25T11:37:22.464Z,19.90
2022-12-25T11:45:55.006Z,22.10
2022-12-25T11:54:28.110Z,26.90
2022-12-25T12:02:58.864Z,18.20
2022-12-25T12:11:35.450Z,23.80
2022-12-25T12:19:59.278Z,18.80
2022-12-25T12:28:29.802Z,17.30
2022-12-25T12:37:07.735Z,15.30
2022-12-25T12:45:34.591Z,12.50
2022-12-25T12:54:21.538Z,11.20
2022-12-25T13:02:51.821Z,11.60
2022-12-25T13:11:24.753Z,15.80
2022-12-25T13:19:55.009Z,16.00
2022-12-25T13:28:25.294Z,16.50
2022-12-25T13:36:48.578Z,18.70
2022-12-25T13:45:14.234Z,18.30
2022-12-25T13:53:37.206Z,22.90
2022-12-25T14:02:00.209Z,23.70
2022-12-25T14:10:27.147Z,20.20
2022-12-25T14:18:56.354Z,21.60
2022-12-25T14:27:25.516Z,37.20
2022-12-25T14:35:49.932Z,62.50
2022-12-25T14:44:33.889Z,39.00
2022-12-25T14:52:58.984Z,43.20
2022-12-25T15:01:31.824Z,35.10
2022-12-25T15:10:18.554Z,34.40
2022-12-25T15:18:41.479Z,42.10
2022-12-25T15:27:05.580Z,56.20
2022-12-25T15:35:29.618Z,54.90
2022-12-25T15:43:52.535Z,59.30
2022-12-25T15:52:17.305Z,57.80
2022-12-25T16:00:40.177Z,49.20
2022-12-25T16:09:03.601Z,54.00
2022-12-25T16:17:26.609Z,57.80
2022-12-25T16:25:50.445Z,62.40
2022-12-25T16:34:13.527Z,72.50
2022-12-25T16:42:38.026Z,60.60
2022-12-25T16:51:01.073Z,61.30
2022-12-25T16:59:23.987Z,75.40
2022-12-25T17:07:47.173Z,62.60
2022-12-25T17:16:19.506Z,59.30
2022-12-25T17:24:42.390Z,53.60
2022-12-25T17:33:05.383Z,42.20
2022-12-25T17:41:28.394Z,43.20
2022-12-25T17:49:51.619Z,51.10
2022-12-25T17:58:14.568Z,42.20
2022-12-25T18:06:37.626Z,44.40
2022-12-25T18:15:00.546Z,47.00
2022-12-25T18:23:24.414Z,52.10
2022-12-25T18:31:48.132Z,50.30
2022-12-25T18:40:11.386Z,52.50
2022-12-25T18:48:35.902Z,51.40
2022-12-25T18:57:03.842Z,76.80
2022-12-25T19:05:31.716Z,65.30
2022-12-25T19:13:54.972Z,57.10
2022-12-25T19:22:18.010Z,45.90
2022-12-25T19:30:41.725Z,47.00
2022-12-25T19:39:06.803Z,43.10
2022-12-25T19:47:29.886Z,39.10
2022-12-25T19:55:53.967Z,41.60
2022-12-25T20:04:20.155Z,44.10
2022-12-25T20:12:44.944Z,48.10
2022-12-25T20:21:12.493Z,41.90
2022-12-25T20:29:35.492Z,32.50
2022-12-25T20:37:58.699Z,32.60
2022-12-25T20:46:21.946Z,32.00
2022-12-25T20:54:45.452Z,32.40
2022-12-25T21:03:09.765Z,30.50
2022-12-25T21:11:33.635Z,29.20
2022-12-25T21:19:57.140Z,28.20
2022-12-25T21:28:20.264Z,24.10
2022-12-25T21:36:44.476Z,27.10
2022-12-25T21:45:08.136Z,29.60
2022-12-25T21:53:33.505Z,30.70
2022-12-25T22:01:57.203Z,31.00
2022-12-25T22:10:20.409Z,28.40
2022-12-25T22:19:02.279Z,26.90
2022-12-25T22:27:26.475Z,26.30
2022-12-25T22:35:49.389Z,23.90
2022-12-25T22:44:17.434Z,22.30
2022-12-25T22:52:42.537Z,24.30
2022-12-25T23:01:09.577Z,26.20
2022-12-25T23:09:32.570Z,23.50
2022-12-25T23:18:14.101Z,26.00
2022-12-25T23:26:37.233Z,28.60
2022-12-25T23:35:00.763Z,23.50
2022-12-25T23:43:24.571Z,25.40
2022-12-25T23:51:47.736Z,24.50
